createdAt,value
2022-07-25T00:00:33.895Z,21.80
2022-07-25T00:03:02.700Z,21.80
2022-07-25T00:05:37.366Z,21.80
2022-07-25T00:08:07.067Z,21.80
2022-07-25T00:10:35.492Z,21.80
2022-07-25T00:13:05.266Z,21.80
2022-07-25T00:15:33.734Z,21.70
2022-07-25T00:18:02.165Z,21.70
2022-07-25T00:20:30.556Z,21.70
2022-07-25T00:22:58.998Z,21.70
2022-07-25T00:25:27.533Z,21.60
2022-07-25T00:27:55.908Z,21.60
2022-07-25T00:30:25.647Z,21.50
2022-07-25T00:32:54.695Z,21.50
2022-07-25T00:35:23.043Z,21.50
2022-07-25T00:37:51.555Z,21.50
2022-07-25T00:40:20.087Z,21.40
2022-07-25T00:42:48.596Z,21.40
2022-07-25T00:45:18.362Z,21.40
2022-07-25T00:47:48.157Z,21.40
2022-07-25T00:50:16.509Z,21.40
2022-07-25T00:52:44.897Z,21.40
2022-07-25T00:55:14.153Z,21.40
2022-07-25T00:57:42.576Z,21.30
2022-07-25T01:00:14.343Z,21.30
2022-07-25T01:02:43.173Z,21.30
2022-07-25T01:05:13.345Z,21.30
2022-07-25T01:07:42.050Z,21.30
2022-07-25T01:10:11.294Z,21.30
2022-07-25T01:12:50.706Z,21.30
2022-07-25T01:15:20.097Z,21.30
2022-07-25T01:17:48.724Z,21.30
2022-07-25T01:20:19.600Z,21.30
2022-07-25T01:22:48.464Z,21.30
2022-07-25T01:25:17.537Z,21.20
2022-07-25T01:27:48.832Z,21.20
2022-07-25T01:30:22.203Z,21.10
2022-07-25T01:32:50.556Z,21.20
2022-07-25T01:35:20.296Z,21.10
2022-07-25T01:37:48.821Z,21.10
2022-07-25T01:40:17.342Z,21.10
2022-07-25T01:42:46.208Z,21.10
2022-07-25T01:45:14.900Z,21.10
2022-07-25T01:47:43.412Z,21.00
2022-07-25T01:50:12.067Z,21.00
2022-07-25T01:52:41.835Z,20.90
2022-07-25T01:55:11.160Z,21.00
2022-07-25T01:57:41.042Z,20.90
2022-07-25T02:00:18.198Z,20.90
2022-07-25T02:02:46.608Z,20.90
2022-07-25T02:05:16.159Z,20.90
2022-07-25T02:07:45.900Z,20.90
2022-07-25T02:10:14.225Z,20.90
2022-07-25T02:12:42.640Z,20.90
2022-07-25T02:15:11.740Z,20.80
2022-07-25T02:17:40.123Z,20.90
2022-07-25T02:20:10.207Z,20.80
2022-07-25T02:22:38.562Z,20.70
2022-07-25T02:25:10.431Z,20.70
2022-07-25T02:27:38.955Z,20.70
2022-07-25T02:30:08.494Z,20.70
2022-07-25T02:32:36.833Z,20.60
2022-07-25T02:35:12.906Z,20.60
2022-07-25T02:37:42.225Z,20.60
2022-07-25T02:40:13.082Z,20.50
2022-07-25T02:42:41.667Z,20.60
2022-07-25T02:45:10.843Z,20.60
2022-07-25T02:48:11.644Z,20.50
2022-07-25T02:50:40.266Z,20.50
2022-07-25T02:53:08.674Z,20.40
2022-07-25T02:55:38.442Z,20.40
2022-07-25T02:58:06.789Z,20.40
2022-07-25T03:00:35.190Z,20.40
2022-07-25T03:03:03.503Z,20.40
2022-07-25T03:05:32.531Z,20.30
2022-07-25T03:08:00.671Z,20.30
2022-07-25T03:10:29.073Z,20.30
2022-07-25T03:12:58.616Z,20.30
2022-07-25T03:15:26.803Z,20.30
2022-07-25T03:17:54.982Z,20.30
2022-07-25T03:20:23.160Z,20.30
2022-07-25T03:22:51.286Z,20.30
2022-07-25T03:25:21.782Z,20.30
2022-07-25T03:27:50.757Z,20.30
2022-07-25T03:30:20.668Z,20.20
2022-07-25T03:32:48.866Z,20.20
2022-07-25T03:35:17.151Z,20.30
2022-07-25T03:37:45.643Z,20.30
2022-07-25T03:40:14.543Z,20.30
2022-07-25T03:42:44.795Z,20.30
2022-07-25T03:45:12.958Z,20.30
2022-07-25T03:47:42.531Z,20.30
2022-07-25T03:50:11.477Z,20.30
2022-07-25T03:52:39.723Z,20.30
2022-07-25T03:55:09.268Z,20.40
2022-07-25T03:57:37.704Z,20.40
2022-07-25T04:00:07.881Z,20.40
2022-07-25T04:02:37.532Z,20.50
2022-07-25T04:05:08.354Z,20.50
2022-07-25T04:07:36.721Z,20.60
2022-07-25T04:10:06.899Z,20.60
2022-07-25T04:12:34.977Z,20.70
2022-07-25T04:15:03.058Z,20.70
2022-07-25T04:17:31.407Z,20.80
2022-07-25T04:19:59.871Z,20.80
2022-07-25T04:22:29.370Z,20.80
2022-07-25T04:24:57.625Z,20.80
2022-07-25T04:27:25.728Z,20.80
2022-07-25T04:29:53.774Z,20.90
2022-07-25T04:32:23.633Z,20.90
2022-07-25T04:34:52.548Z,21.00
2022-07-25T04:37:20.625Z,21.00
2022-07-25T04:39:50.061Z,21.00
2022-07-25T04:42:18.126Z,21.00
2022-07-25T04:44:46.222Z,21.00
2022-07-25T04:47:14.286Z,21.10
2022-07-25T04:49:42.403Z,21.10
2022-07-25T04:52:10.562Z,21.10
2022-07-25T04:54:38.660Z,21.10
2022-07-25T04:57:08.079Z,21.20
2022-07-25T04:59:36.211Z,21.30
2022-07-25T05:02:04.425Z,21.40
2022-07-25T05:04:32.626Z,21.50
2022-07-25T05:07:03.261Z,21.60
2022-07-25T05:09:31.400Z,21.70
2022-07-25T05:11:59.494Z,21.90
2022-07-25T05:14:29.075Z,22.10
2022-07-25T05:16:57.185Z,22.20
2022-07-25T05:19:25.374Z,22.30
2022-07-25T05:21:53.773Z,22.40
2022-07-25T05:24:22.986Z,22.50
2022-07-25T05:26:51.291Z,22.50
2022-07-25T05:29:19.527Z,22.60
2022-07-25T05:31:49.022Z,22.70
2022-07-25T05:34:17.151Z,22.70
2022-07-25T05:36:47.286Z,22.90
2022-07-25T05:39:15.652Z,23.10
2022-07-25T05:41:44.334Z,23.30
2022-07-25T05:44:14.697Z,23.50
2022-07-25T05:46:43.027Z,23.50
2022-07-25T05:49:12.551Z,23.50
2022-07-25T05:51:40.661Z,23.50
2022-07-25T05:54:09.636Z,23.50
2022-07-25T05:56:37.964Z,23.60
2022-07-25T05:59:06.549Z,23.80
2022-07-25T06:01:34.735Z,24.20
2022-07-25T06:04:03.901Z,24.50
2022-07-25T06:06:34.221Z,24.60
2022-07-25T06:09:02.730Z,24.50
2022-07-25T06:11:36.343Z,24.50
2022-07-25T06:14:19.318Z,24.40
2022-07-25T06:16:48.335Z,24.40
2022-07-25T06:19:16.498Z,24.60
2022-07-25T06:21:45.979Z,24.60
2022-07-25T06:24:14.040Z,24.60
2022-07-25T06:26:42.758Z,24.60
2022-07-25T06:29:10.897Z,24.50
2022-07-25T06:31:39.098Z,24.40
2022-07-25T06:34:07.713Z,24.40
2022-07-25T06:36:35.990Z,24.60
2022-07-25T06:39:05.476Z,24.80
2022-07-25T06:41:33.598Z,24.90
2022-07-25T06:44:01.702Z,24.90
2022-07-25T06:46:31.479Z,25.10
2022-07-25T06:48:59.955Z,25.40
2022-07-25T06:51:28.322Z,25.60
2022-07-25T06:53:56.712Z,25.90
2022-07-25T06:56:28.009Z,25.90
2022-07-25T06:58:56.093Z,25.70
2022-07-25T07:01:24.239Z,25.50
2022-07-25T07:03:52.507Z,25.50
2022-07-25T07:06:20.887Z,25.60
2022-07-25T07:08:49.051Z,25.90
2022-07-25T07:11:17.227Z,26.20
2022-07-25T07:13:46.766Z,26.70
2022-07-25T07:16:15.028Z,26.90
2022-07-25T07:18:48.701Z,26.80
2022-07-25T07:21:21.350Z,27.10
2022-07-25T07:23:53.374Z,27.30
2022-07-25T07:26:22.517Z,27.30
2022-07-25T07:28:54.416Z,27.50
2022-07-25T07:31:22.656Z,27.80
2022-07-25T07:33:50.793Z,28.10
2022-07-25T07:36:18.874Z,28.10
2022-07-25T07:38:48.320Z,28.10
2022-07-25T07:41:16.705Z,28.20
2022-07-25T07:43:44.755Z,28.40
2022-07-25T07:46:14.262Z,28.50
2022-07-25T07:48:42.393Z,28.50
2022-07-25T07:51:10.486Z,28.90
2022-07-25T07:53:55.940Z,29.10
2022-07-25T07:56:24.252Z,29.40
2022-07-25T07:58:52.379Z,29.50
2022-07-25T08:01:21.918Z,29.20
2022-07-25T08:03:50.041Z,29.20
2022-07-25T08:06:18.397Z,29.40
2022-07-25T08:08:46.514Z,29.50
2022-07-25T08:11:16.781Z,29.60
2022-07-25T08:13:45.835Z,29.50
2022-07-25T08:16:14.352Z,29.40
2022-07-25T08:18:43.888Z,29.30
2022-07-25T08:21:12.306Z,29.40
2022-07-25T08:23:41.101Z,29.10
2022-07-25T08:26:09.509Z,28.80
2022-07-25T08:28:37.657Z,28.60
2022-07-25T08:31:05.900Z,28.50
2022-07-25T08:33:34.364Z,28.50
2022-07-25T08:36:04.042Z,28.40
2022-07-25T08:38:32.184Z,28.50
2022-07-25T08:41:02.830Z,28.60
2022-07-25T08:43:33.002Z,28.70
2022-07-25T08:46:02.994Z,29.00
2022-07-25T08:48:31.256Z,29.40
2022-07-25T08:51:00.491Z,29.90
2022-07-25T08:53:33.160Z,30.90
2022-07-25T08:56:05.318Z,31.20
2022-07-25T08:58:38.082Z,31.30
2022-07-25T09:01:07.092Z,31.50
2022-07-25T09:03:36.310Z,31.50
2022-07-25T09:06:15.836Z,31.60
2022-07-25T09:08:54.472Z,31.50
2022-07-25T09:11:31.162Z,31.20
2022-07-25T09:14:00.818Z,30.90
2022-07-25T09:16:32.610Z,31.00
2022-07-25T09:19:10.631Z,31.00
2022-07-25T09:21:39.823Z,31.20
2022-07-25T09:24:18.469Z,31.30
2022-07-25T09:26:49.054Z,31.30
2022-07-25T09:29:22.456Z,31.50
2022-07-25T09:31:51.179Z,31.40
2022-07-25T09:34:34.978Z,31.30
2022-07-25T09:37:04.321Z,31.30
2022-07-25T09:39:46.688Z,31.40
2022-07-25T09:42:21.959Z,31.50
2022-07-25T09:45:12.411Z,31.70
2022-07-25T09:47:52.114Z,31.90
2022-07-25T09:50:20.907Z,31.90
2022-07-25T09:52:49.002Z,31.90
2022-07-25T09:55:19.274Z,31.90
2022-07-25T09:57:48.999Z,31.70
2022-07-25T10:00:23.244Z,31.50
2022-07-25T10:02:59.424Z,31.40
2022-07-25T10:05:42.974Z,31.30
2022-07-25T10:08:12.657Z,31.30
2022-07-25T10:10:43.213Z,31.60
2022-07-25T10:13:15.182Z,31.70
2022-07-25T10:15:48.758Z,31.70
2022-07-25T10:18:19.914Z,31.80
2022-07-25T10:20:49.685Z,31.90
2022-07-25T10:23:25.698Z,31.80
2022-07-25T10:26:09.311Z,32.30
2022-07-25T10:28:43.288Z,32.50
2022-07-25T10:31:22.966Z,32.80
2022-07-25T10:33:54.294Z,33.40
2022-07-25T10:36:23.727Z,34.00
2022-07-25T10:38:58.468Z,34.60
2022-07-25T10:41:29.851Z,35.20
2022-07-25T10:44:02.876Z,35.20
2022-07-25T10:46:32.561Z,35.00
2022-07-25T10:49:06.030Z,34.70
2022-07-25T10:51:41.323Z,34.90
2022-07-25T10:54:17.181Z,35.40
2022-07-25T10:56:58.119Z,35.60
2022-07-25T10:59:32.189Z,35.80
2022-07-25T11:02:01.045Z,36.50
2022-07-25T11:04:29.334Z,36.50
2022-07-25T11:06:57.654Z,36.30
2022-07-25T11:09:28.275Z,36.50
2022-07-25T11:11:59.463Z,36.30
2022-07-25T11:14:32.824Z,36.00
2022-07-25T11:17:12.998Z,36.10
2022-07-25T11:19:41.671Z,36.30
2022-07-25T11:22:09.985Z,35.80
2022-07-25T11:24:40.398Z,35.10
2022-07-25T11:27:12.337Z,35.10
2022-07-25T11:29:41.967Z,35.40
2022-07-25T11:32:12.006Z,35.90
2022-07-25T11:34:43.508Z,36.50
2022-07-25T11:37:13.619Z,36.90
2022-07-25T11:39:44.123Z,37.10
2022-07-25T11:42:16.656Z,37.00
2022-07-25T11:44:48.065Z,36.30
2022-07-25T11:47:28.224Z,35.90
2022-07-25T11:49:57.747Z,35.90
2022-07-25T11:52:27.818Z,35.80
2022-07-25T11:54:57.222Z,35.30
2022-07-25T11:57:28.415Z,34.90
2022-07-25T11:59:57.727Z,35.00
2022-07-25T12:02:27.628Z,34.60
2022-07-25T12:04:57.975Z,34.40
2022-07-25T12:07:37.581Z,34.20
2022-07-25T12:10:06.767Z,34.60
2022-07-25T12:12:45.163Z,34.90
2022-07-25T12:15:14.723Z,35.00
2022-07-25T12:17:43.886Z,35.00
2022-07-25T12:20:17.121Z,34.60
2022-07-25T12:22:45.343Z,34.10
2022-07-25T12:25:14.038Z,33.70
2022-07-25T12:27:44.167Z,33.40
2022-07-25T12:30:13.743Z,33.20
2022-07-25T12:32:42.671Z,32.90
2022-07-25T12:35:12.421Z,32.80
2022-07-25T12:37:41.589Z,32.70
2022-07-25T12:40:10.962Z,32.40
2022-07-25T12:42:39.269Z,32.30
2022-07-25T12:45:09.953Z,32.10
2022-07-25T12:47:38.154Z,32.10
2022-07-25T12:50:07.402Z,32.10
2022-07-25T12:52:35.613Z,32.10
2022-07-25T12:55:03.828Z,32.20
2022-07-25T12:57:32.167Z,32.30
2022-07-25T13:00:00.296Z,32.20
2022-07-25T13:02:29.895Z,32.30
2022-07-25T13:04:58.126Z,32.20
2022-07-25T13:07:26.463Z,32.30
2022-07-25T13:09:54.670Z,32.30
2022-07-25T13:12:24.151Z,32.50
2022-07-25T13:14:52.329Z,32.50
2022-07-25T13:17:23.622Z,32.60
2022-07-25T13:19:57.813Z,32.50
2022-07-25T13:22:26.289Z,32.70
2022-07-25T13:24:55.275Z,32.90
2022-07-25T13:27:24.063Z,33.00
2022-07-25T13:29:54.861Z,32.90
2022-07-25T13:32:26.469Z,32.70
2022-07-25T13:34:56.260Z,32.70
2022-07-25T13:37:24.492Z,32.60
2022-07-25T13:39:52.690Z,32.40
2022-07-25T13:42:20.813Z,32.00
2022-07-25T13:44:49.135Z,31.50
2022-07-25T13:47:17.363Z,31.20
2022-07-25T13:49:45.494Z,31.10
2022-07-25T13:52:15.102Z,30.90
2022-07-25T13:54:43.361Z,30.40
2022-07-25T13:57:11.619Z,30.00
2022-07-25T13:59:39.933Z,29.70
2022-07-25T14:02:08.162Z,29.50
2022-07-25T14:04:36.294Z,29.40
2022-07-25T14:07:04.582Z,29.30
2022-07-25T14:09:34.078Z,29.20
2022-07-25T14:12:02.352Z,29.30
2022-07-25T14:14:30.529Z,29.10
2022-07-25T14:16:59.292Z,28.90
2022-07-25T14:19:27.491Z,28.80
2022-07-25T14:21:55.647Z,28.80
2022-07-25T14:24:23.904Z,28.70
2022-07-25T14:26:54.065Z,28.60
2022-07-25T14:29:25.944Z,28.30
2022-07-25T14:31:57.003Z,28.00
2022-07-25T14:34:25.320Z,28.00
2022-07-25T14:36:53.503Z,27.90
2022-07-25T14:39:21.730Z,27.80
2022-07-25T14:41:50.176Z,27.70
2022-07-25T14:44:20.182Z,27.60
2022-07-25T14:46:50.087Z,27.30
2022-07-25T14:49:20.182Z,27.10
2022-07-25T14:51:49.518Z,26.50
2022-07-25T14:54:18.500Z,26.30
2022-07-25T14:56:46.824Z,25.80
2022-07-25T14:59:15.005Z,25.40
2022-07-25T15:01:44.570Z,25.30
2022-07-25T15:04:12.824Z,25.30
2022-07-25T15:06:41.139Z,25.10
2022-07-25T15:09:09.763Z,24.90
2022-07-25T15:11:38.460Z,24.80
2022-07-25T15:14:06.621Z,24.80
2022-07-25T15:16:35.033Z,24.70
2022-07-25T15:19:16.583Z,24.50
2022-07-25T15:21:45.769Z,24.40
2022-07-25T15:24:14.296Z,24.30
2022-07-25T15:26:42.410Z,24.30
2022-07-25T15:29:11.987Z,24.30
2022-07-25T15:31:40.425Z,24.30
2022-07-25T15:34:10.022Z,24.30
2022-07-25T15:36:38.177Z,24.30
2022-07-25T15:39:06.765Z,24.30
2022-07-25T15:41:35.365Z,24.40
2022-07-25T15:44:03.547Z,24.60
2022-07-25T15:46:32.779Z,24.60
2022-07-25T15:49:02.599Z,24.60
2022-07-25T15:51:32.251Z,24.50
2022-07-25T15:54:00.385Z,24.60
2022-07-25T15:56:29.191Z,24.60
2022-07-25T15:58:57.426Z,24.60
2022-07-25T16:01:26.191Z,24.60
2022-07-25T16:03:55.321Z,24.60
2022-07-25T16:06:23.453Z,24.70
2022-07-25T16:08:53.118Z,24.60
2022-07-25T16:11:27.000Z,24.60
2022-07-25T16:13:55.249Z,24.50
2022-07-25T16:16:23.577Z,24.30
2022-07-25T16:18:52.057Z,24.10
2022-07-25T16:21:20.241Z,24.10
2022-07-25T16:23:48.336Z,24.10
2022-07-25T16:26:17.879Z,24.20
2022-07-25T16:28:46.009Z,24.30
2022-07-25T16:31:14.177Z,24.40
2022-07-25T16:33:42.314Z,24.40
2022-07-25T16:36:12.326Z,24.50
2022-07-25T16:38:40.634Z,24.60
2022-07-25T16:41:09.009Z,24.60
2022-07-25T16:43:38.585Z,24.70
2022-07-25T16:46:08.643Z,24.50
2022-07-25T16:48:38.063Z,24.40
2022-07-25T16:51:06.800Z,24.30
2022-07-25T16:53:36.638Z,24.20
2022-07-25T16:56:06.607Z,24.10
2022-07-25T16:58:35.833Z,23.90
2022-07-25T17:01:06.890Z,23.80
2022-07-25T17:03:35.330Z,23.70
2022-07-25T17:06:05.434Z,23.80
2022-07-25T17:08:34.806Z,23.80
2022-07-25T17:11:04.590Z,23.90
2022-07-25T17:13:33.026Z,24.00
2022-07-25T17:16:01.797Z,24.00
2022-07-25T17:18:31.625Z,23.80
2022-07-25T17:21:00.103Z,23.70
2022-07-25T17:23:28.673Z,23.50
2022-07-25T17:25:58.107Z,23.30
2022-07-25T17:28:27.030Z,23.30
2022-07-25T17:30:55.597Z,23.30
2022-07-25T17:33:23.967Z,23.20
2022-07-25T17:35:53.673Z,23.10
2022-07-25T17:38:25.977Z,23.10
2022-07-25T17:40:56.150Z,23.00
2022-07-25T17:43:24.379Z,23.00
2022-07-25T17:45:52.785Z,22.90
2022-07-25T17:48:21.630Z,22.90
2022-07-25T17:50:49.931Z,22.80
2022-07-25T17:53:19.471Z,22.80
2022-07-25T17:55:47.750Z,22.80
2022-07-25T17:58:16.191Z,22.80
2022-07-25T18:00:44.384Z,22.80
2022-07-25T18:03:12.545Z,22.80
2022-07-25T18:05:40.835Z,22.80
2022-07-25T18:08:10.690Z,22.80
2022-07-25T18:10:40.850Z,22.80
2022-07-25T18:13:08.942Z,22.80
2022-07-25T18:15:37.330Z,22.70
2022-07-25T18:18:07.410Z,22.70
2022-07-25T18:20:37.045Z,22.70
2022-07-25T18:23:05.240Z,22.70
2022-07-25T18:25:33.350Z,22.60
2022-07-25T18:28:03.343Z,22.60
2022-07-25T18:30:31.572Z,22.60
2022-07-25T18:32:59.700Z,22.60
2022-07-25T18:35:27.814Z,22.50
2022-07-25T18:37:56.058Z,22.50
2022-07-25T18:40:24.188Z,22.50
2022-07-25T18:42:52.314Z,22.50
2022-07-25T18:45:22.166Z,22.50
2022-07-25T18:47:52.461Z,22.50
2022-07-25T18:50:20.778Z,22.50
2022-07-25T18:52:48.932Z,22.50
2022-07-25T18:55:17.035Z,22.50
2022-07-25T18:57:45.247Z,22.40
2022-07-25T19:00:13.705Z,22.30
2022-07-25T19:02:43.198Z,22.30
2022-07-25T19:05:11.633Z,22.30
2022-07-25T19:07:40.907Z,22.30
2022-07-25T19:10:10.459Z,22.10
2022-07-25T19:12:38.983Z,22.10
2022-07-25T19:15:08.203Z,22.10
2022-07-25T19:17:37.628Z,22.00
2022-07-25T19:20:08.852Z,22.00
2022-07-25T19:22:37.002Z,21.90
2022-07-25T19:25:08.301Z,21.90
2022-07-25T19:27:36.634Z,22.00
2022-07-25T19:30:06.987Z,22.00
2022-07-25T19:32:35.971Z,22.00
2022-07-25T19:35:04.649Z,21.90
2022-07-25T19:37:34.391Z,21.90
2022-07-25T19:40:02.750Z,21.80
2022-07-25T19:42:30.868Z,21.80
2022-07-25T19:44:58.983Z,21.70
2022-07-25T19:47:27.657Z,21.70
2022-07-25T19:49:55.722Z,21.70
2022-07-25T19:52:23.876Z,21.60
2022-07-25T19:54:54.532Z,21.60
2022-07-25T19:57:22.608Z,21.40
2022-07-25T19:59:50.667Z,21.40
2022-07-25T20:02:18.806Z,21.30
2022-07-25T20:04:46.942Z,21.30
2022-07-25T20:07:15.017Z,21.20
2022-07-25T20:09:43.147Z,21.20
2022-07-25T20:12:12.570Z,21.20
2022-07-25T20:14:40.635Z,21.20
2022-07-25T20:17:09.000Z,21.20
2022-07-25T20:19:38.236Z,21.20
2022-07-25T20:22:06.885Z,21.20
2022-07-25T20:24:35.259Z,21.20
2022-07-25T20:27:03.374Z,21.10
2022-07-25T20:29:32.793Z,21.10
2022-07-25T20:32:02.189Z,21.10
2022-07-25T20:34:30.363Z,21.00
2022-07-25T20:36:58.503Z,21.00
2022-07-25T20:39:28.797Z,21.00
2022-07-25T20:41:56.985Z,20.90
2022-07-25T20:44:25.180Z,20.90
2022-07-25T20:46:54.641Z,20.90
2022-07-25T20:49:23.306Z,20.90
2022-07-25T20:51:54.554Z,20.90
2022-07-25T20:54:23.069Z,20.90
2022-07-25T20:56:51.222Z,20.90
2022-07-25T20:59:19.305Z,20.90
2022-07-25T21:01:47.516Z,20.90
2022-07-25T21:04:18.807Z,20.80
2022-07-25T21:06:47.138Z,20.70
2022-07-25T21:09:16.571Z,20.70
2022-07-25T21:11:44.741Z,20.70
2022-07-25T21:14:13.284Z,20.60
2022-07-25T21:16:41.428Z,20.60
2022-07-25T21:19:09.937Z,20.60
2022-07-25T21:21:39.947Z,20.50
2022-07-25T21:24:09.317Z,20.50
2022-07-25T21:26:39.258Z,20.50
2022-07-25T21:29:08.094Z,20.50
2022-07-25T21:31:36.612Z,20.50
2022-07-25T21:34:05.015Z,20.50
2022-07-25T21:36:34.110Z,20.50
2022-07-25T21:39:03.867Z,20.50
2022-07-25T21:41:32.183Z,20.50
2022-07-25T21:44:00.277Z,20.50
2022-07-25T21:46:28.570Z,20.40
2022-07-25T21:49:14.690Z,20.40
2022-07-25T21:51:43.136Z,20.40
2022-07-25T21:54:12.791Z,20.40
2022-07-25T21:56:42.119Z,20.40
2022-07-25T21:59:10.772Z,20.30
2022-07-25T22:01:39.843Z,20.30
2022-07-25T22:04:08.143Z,20.20
2022-07-25T22:06:36.266Z,20.20
2022-07-25T22:09:05.721Z,20.20
2022-07-25T22:11:42.683Z,20.20
2022-07-25T22:14:14.651Z,20.20
2022-07-25T22:16:42.985Z,20.20
2022-07-25T22:19:11.485Z,20.10
2022-07-25T22:21:40.778Z,20.10
2022-07-25T22:24:09.207Z,20.10
2022-07-25T22:26:38.695Z,20.10
2022-07-25T22:29:07.271Z,20.10
2022-07-25T22:31:35.946Z,20.10
2022-07-25T22:34:04.100Z,20.10
2022-07-25T22:36:32.229Z,20.10
2022-07-25T22:39:00.301Z,20.10
2022-07-25T22:41:28.402Z,20.10
2022-07-25T22:43:59.794Z,20.00
2022-07-25T22:46:28.905Z,20.00
2022-07-25T22:48:57.537Z,20.00
2022-07-25T22:51:26.399Z,20.00
2022-07-25T22:53:54.829Z,20.00
2022-07-25T22:56:23.353Z,19.90
2022-07-25T22:58:51.469Z,19.90
2022-07-25T23:01:21.811Z,19.80
2022-07-25T23:03:50.773Z,19.80
2022-07-25T23:06:20.103Z,19.80
2022-07-25T23:08:49.190Z,19.80
2022-07-25T23:11:17.565Z,19.80
2022-07-25T23:13:45.833Z,19.90
2022-07-25T23:16:13.959Z,19.80
2022-07-25T23:18:43.411Z,19.90
2022-07-25T23:21:11.527Z,19.80
2022-07-25T23:23:39.605Z,19.80
2022-07-25T23:26:07.701Z,19.70
2022-07-25T23:28:35.811Z,19.60
2022-07-25T23:31:04.274Z,19.50
2022-07-25T23:33:32.485Z,19.40
2022-07-25T23:36:02.516Z,19.40
2022-07-25T23:38:30.663Z,19.40
2022-07-25T23:40:58.738Z,19.30
2022-07-25T23:43:55.870Z,19.30
2022-07-25T23:46:15.023Z,19.20
2022-07-25T23:48:43.390Z,19.20
2022-07-25T23:51:12.888Z,19.20
2022-07-25T23:53:41.079Z,19.20
2022-07-25T23:56:09.475Z,19.20
2022-07-25T23:58:37.538Z,19.10
